createdAt,value
2023-02-17T00:01:52.435Z,178.60
2023-02-17T00:04:18.828Z,173.23
2023-02-17T00:06:45.315Z,189.90
2023-02-17T00:09:11.738Z,193.25
2023-02-17T00:11:38.186Z,209.55
2023-02-17T00:14:04.721Z,195.88
2023-02-17T00:16:31.265Z,204.13
2023-02-17T00:18:58.739Z,221.90
2023-02-17T00:21:26.149Z,212.63
2023-02-17T00:23:53.090Z,206.23
2023-02-17T00:26:20.502Z,206.95
2023-02-17T00:28:47.446Z,196.43
2023-02-17T00:31:15.436Z,199.90
2023-02-17T00:33:42.005Z,195.57
2023-02-17T00:36:11.072Z,189.48
2023-02-17T00:38:37.583Z,183.15
2023-02-17T00:41:04.132Z,185.38
2023-02-17T00:43:30.530Z,166.52
2023-02-17T00:45:57.133Z,163.93
2023-02-17T00:48:23.835Z,155.82
2023-02-17T00:50:50.420Z,167.05
2023-02-17T00:53:16.919Z,150.75
2023-02-17T00:55:43.379Z,154.93
2023-02-17T00:58:09.874Z,149.65
2023-02-17T01:00:36.437Z,145.68
2023-02-17T01:03:02.834Z,145.18
2023-02-17T01:05:29.430Z,145.93
2023-02-17T01:07:56.098Z,153.68
2023-02-17T01:10:22.536Z,146.38
2023-02-17T01:12:49.029Z,135.13
2023-02-17T01:15:15.573Z,128.43
2023-02-17T01:17:42.050Z,148.93
2023-02-17T01:20:08.681Z,157.05
2023-02-17T01:22:35.164Z,172.98
2023-02-17T01:25:01.567Z,171.40
2023-02-17T01:27:28.221Z,161.63
2023-02-17T01:29:54.740Z,162.15
2023-02-17T01:32:21.205Z,162.63
2023-02-17T01:34:49.056Z,168.65
2023-02-17T01:37:15.527Z,166.40
2023-02-17T01:39:41.949Z,153.63
2023-02-17T01:42:14.879Z,180.27
2023-02-17T01:44:59.732Z,146.50
2023-02-17T01:47:26.187Z,151.52
2023-02-17T01:49:52.657Z,161.40
2023-02-17T01:52:25.483Z,155.68
2023-02-17T01:54:56.921Z,143.07
2023-02-17T01:57:24.915Z,156.65
2023-02-17T01:59:51.802Z,162.65
2023-02-17T02:02:18.580Z,164.20
2023-02-17T02:04:46.886Z,169.10
2023-02-17T02:07:19.082Z,159.20
2023-02-17T02:09:52.965Z,161.13
2023-02-17T02:12:38.687Z,150.82
2023-02-17T02:15:07.900Z,161.45
2023-02-17T02:17:34.317Z,149.43
2023-02-17T02:20:03.828Z,153.23
2023-02-17T02:22:33.415Z,162.23
2023-02-17T02:25:08.732Z,152.65
2023-02-17T02:27:35.545Z,154.35
2023-02-17T02:30:20.804Z,163.48
2023-02-17T02:32:49.813Z,167.88
2023-02-17T02:35:34.931Z,184.73
2023-02-17T02:38:06.891Z,168.43
2023-02-17T02:40:36.636Z,173.20
2023-02-17T02:43:04.076Z,182.45
2023-02-17T02:45:30.708Z,177.73
2023-02-17T02:47:57.870Z,158.15
2023-02-17T02:50:30.277Z,162.82
2023-02-17T02:53:26.045Z,174.50
2023-02-17T02:56:10.616Z,172.43
2023-02-17T02:58:52.006Z,166.68
2023-02-17T03:01:21.236Z,173.60
2023-02-17T03:03:53.650Z,179.55
2023-02-17T03:06:22.763Z,167.48
2023-02-17T03:08:52.644Z,163.38
2023-02-17T03:11:32.589Z,178.82
2023-02-17T03:14:04.817Z,188.45
2023-02-17T03:16:31.315Z,158.05
2023-02-17T03:18:57.888Z,153.15
2023-02-17T03:21:26.124Z,171.68
2023-02-17T03:23:52.603Z,158.30
2023-02-17T03:26:19.086Z,163.02
2023-02-17T03:28:45.578Z,154.48
2023-02-17T03:31:12.028Z,170.93
2023-02-17T03:33:38.515Z,155.05
2023-02-17T03:36:05.419Z,149.32
2023-02-17T03:38:32.016Z,137.95
2023-02-17T03:40:58.505Z,142.82
2023-02-17T03:43:25.002Z,156.63
2023-02-17T03:45:51.446Z,150.52
2023-02-17T03:48:17.928Z,149.18
2023-02-17T03:50:44.390Z,154.75
2023-02-17T03:53:11.393Z,170.63
2023-02-17T03:55:37.947Z,179.68
2023-02-17T03:58:04.476Z,164.63
2023-02-17T04:00:30.966Z,177.20
2023-02-17T04:02:57.689Z,160.55
2023-02-17T04:05:24.446Z,175.38
2023-02-17T04:07:51.195Z,174.35
2023-02-17T04:10:17.831Z,168.85
2023-02-17T04:12:44.349Z,162.27
2023-02-17T04:15:10.921Z,178.23
2023-02-17T04:17:38.083Z,156.38
2023-02-17T04:20:05.459Z,160.93
2023-02-17T04:22:32.066Z,161.35
2023-02-17T04:24:58.605Z,162.27
2023-02-17T04:27:25.567Z,160.35
2023-02-17T04:29:52.162Z,152.90
2023-02-17T04:32:18.779Z,154.05
2023-02-17T04:34:45.241Z,153.02
2023-02-17T04:37:11.733Z,158.05
2023-02-17T04:39:38.133Z,154.40
2023-02-17T04:42:04.706Z,174.75
2023-02-17T04:44:31.304Z,165.43
2023-02-17T04:46:57.821Z,176.50
2023-02-17T04:49:24.326Z,152.75
2023-02-17T04:51:50.865Z,164.50
2023-02-17T04:54:17.477Z,142.23
2023-02-17T04:56:43.916Z,145.23
2023-02-17T04:59:10.658Z,149.50
2023-02-17T05:01:37.244Z,151.85
2023-02-17T05:04:03.842Z,150.75
2023-02-17T05:06:30.309Z,129.70
2023-02-17T05:08:56.823Z,131.52
2023-02-17T05:11:23.278Z,129.32
2023-02-17T05:13:49.750Z,124.82
2023-02-17T05:16:16.186Z,122.60
2023-02-17T05:18:42.626Z,127.20
2023-02-17T05:21:09.128Z,125.45
2023-02-17T05:23:41.218Z,137.40
2023-02-17T05:26:08.870Z,149.68
2023-02-17T05:28:35.904Z,129.88
2023-02-17T05:31:02.900Z,125.35
2023-02-17T05:33:29.542Z,123.15
2023-02-17T05:35:56.313Z,121.55
2023-02-17T05:38:22.804Z,138.60
2023-02-17T05:40:50.254Z,131.23
2023-02-17T05:43:16.741Z,139.45
2023-02-17T05:45:43.133Z,127.68
2023-02-17T05:48:09.532Z,132.88
2023-02-17T05:50:35.952Z,115.57
2023-02-17T05:53:02.611Z,123.18
2023-02-17T05:55:29.096Z,149.80
2023-02-17T05:57:55.494Z,196.30
2023-02-17T06:00:22.006Z,219.23
2023-02-17T06:02:48.479Z,184.05
2023-02-17T06:05:15.444Z,175.48
2023-02-17T06:07:42.027Z,182.68
2023-02-17T06:10:09.187Z,202.40
2023-02-17T06:12:35.786Z,188.13
2023-02-17T06:15:02.552Z,185.02
2023-02-17T06:17:29.230Z,187.88
2023-02-17T06:19:55.724Z,201.88
2023-02-17T06:22:22.170Z,178.80
2023-02-17T06:24:48.716Z,163.52
2023-02-17T06:27:15.187Z,171.77
2023-02-17T06:29:41.721Z,160.73
2023-02-17T06:32:08.346Z,158.68
2023-02-17T06:34:34.894Z,156.98
2023-02-17T06:37:01.319Z,158.70
2023-02-17T06:39:27.773Z,162.90
2023-02-17T06:41:54.237Z,158.15
2023-02-17T06:44:20.717Z,153.15
2023-02-17T06:46:47.376Z,157.05
2023-02-17T06:49:14.312Z,160.20
2023-02-17T06:51:40.865Z,148.73
2023-02-17T06:54:07.445Z,143.60
2023-02-17T06:56:33.914Z,144.80
2023-02-17T06:59:01.392Z,142.07
2023-02-17T07:01:27.919Z,150.35
2023-02-17T07:03:55.152Z,141.02
2023-02-17T07:06:23.268Z,131.85
2023-02-17T07:08:49.986Z,129.52
2023-02-17T07:11:16.572Z,132.35
2023-02-17T07:13:43.424Z,131.80
2023-02-17T07:16:10.887Z,127.35
2023-02-17T07:18:40.082Z,132.13
2023-02-17T07:21:07.197Z,137.40
2023-02-17T07:23:33.605Z,128.18
2023-02-17T07:26:04.121Z,136.80
2023-02-17T07:28:31.006Z,120.63
2023-02-17T07:30:57.541Z,124.05
2023-02-17T07:33:24.072Z,128.77
2023-02-17T07:35:50.496Z,127.80
2023-02-17T07:38:16.987Z,112.78
2023-02-17T07:40:43.415Z,122.38
2023-02-17T07:43:09.925Z,116.75
2023-02-17T07:45:36.414Z,110.60
2023-02-17T07:48:03.056Z,128.48
2023-02-17T07:50:29.576Z,108.15
2023-02-17T07:52:56.048Z,107.03
2023-02-17T07:55:22.602Z,110.30
2023-02-17T07:57:49.251Z,109.97
2023-02-17T08:00:16.143Z,95.00
2023-02-17T08:02:42.596Z,99.97
2023-02-17T08:05:09.159Z,91.07
2023-02-17T08:07:35.731Z,83.68
2023-02-17T08:10:20.636Z,87.68
2023-02-17T08:13:05.685Z,86.43
2023-02-17T08:15:32.811Z,79.65
2023-02-17T08:18:00.851Z,71.50
2023-02-17T16:41:41.376Z,43.08
2023-02-17T16:44:08.254Z,38.50
2023-02-17T16:46:36.594Z,36.70
2023-02-17T16:49:04.237Z,28.70
2023-02-17T16:51:30.859Z,27.05
2023-02-17T16:53:57.321Z,24.95
2023-02-17T16:56:30.186Z,29.02
2023-02-17T16:58:56.610Z,39.47
2023-02-17T17:01:24.266Z,37.75
2023-02-17T17:03:50.887Z,48.28
2023-02-17T17:06:17.581Z,40.17
2023-02-17T17:08:44.010Z,32.67
2023-02-17T17:11:14.468Z,44.72
2023-02-17T17:13:40.891Z,43.63
2023-02-17T17:16:19.070Z,43.08
2023-02-17T17:18:45.550Z,38.53
2023-02-17T17:21:12.806Z,51.53
2023-02-17T17:23:39.688Z,45.25
2023-02-17T17:26:18.170Z,44.88
2023-02-17T17:28:44.630Z,78.60
2023-02-17T17:31:11.431Z,54.28
2023-02-17T17:33:37.840Z,52.45
2023-02-17T17:36:11.674Z,275.85
2023-02-17T17:38:38.114Z,311.20
2023-02-17T17:41:04.581Z,365.23
2023-02-17T17:43:31.106Z,231.23
2023-02-17T17:45:57.641Z,131.27
2023-02-17T17:48:24.151Z,194.45
2023-02-17T17:50:50.639Z,319.95
2023-02-17T17:53:17.092Z,302.85
2023-02-17T17:55:43.562Z,418.77
2023-02-17T17:58:10.455Z,416.25
2023-02-17T18:00:36.984Z,548.97
2023-02-17T18:03:04.064Z,593.85
2023-02-17T18:05:30.694Z,350.67
2023-02-17T18:07:57.297Z,248.48
2023-02-17T18:10:23.863Z,182.00
2023-02-17T18:12:50.471Z,163.52
2023-02-17T18:15:17.263Z,144.50
2023-02-17T18:17:44.006Z,133.82
2023-02-17T18:20:11.051Z,150.38
2023-02-17T18:22:37.531Z,117.43
2023-02-17T18:25:04.176Z,105.07
2023-02-17T18:27:36.539Z,103.13
2023-02-17T18:30:03.256Z,106.07
2023-02-17T18:32:29.744Z,148.95
2023-02-17T18:34:58.504Z,124.75
2023-02-17T18:37:25.326Z,106.00
2023-02-17T18:40:21.377Z,94.10
2023-02-17T18:42:48.431Z,85.00
2023-02-17T18:45:15.870Z,80.78
2023-02-17T18:47:43.045Z,86.30
2023-02-17T18:50:10.233Z,86.95
2023-02-17T18:52:40.011Z,89.72
2023-02-17T18:55:06.693Z,96.75
2023-02-17T18:57:33.468Z,78.07
2023-02-17T18:59:59.892Z,87.97
2023-02-17T19:02:26.531Z,80.15
2023-02-17T19:04:53.212Z,81.97
2023-02-17T19:07:20.180Z,72.80
2023-02-17T19:09:46.687Z,71.70
2023-02-17T19:12:16.010Z,72.53
2023-02-17T19:14:42.924Z,62.58
2023-02-17T19:17:10.465Z,63.05
2023-02-17T19:19:37.447Z,66.38
2023-02-17T19:22:08.192Z,64.88
2023-02-17T19:24:35.339Z,70.95
2023-02-17T19:27:01.927Z,77.05
2023-02-17T19:29:28.458Z,98.60
2023-02-17T19:31:56.767Z,89.80
2023-02-17T19:34:23.437Z,122.45
2023-02-17T19:36:49.933Z,121.50
2023-02-17T19:39:16.485Z,87.57
2023-02-17T19:41:42.982Z,83.20
2023-02-17T19:44:10.668Z,73.32
2023-02-17T19:46:37.217Z,94.53
2023-02-17T19:49:05.445Z,128.15
2023-02-17T19:51:32.417Z,101.70
2023-02-17T19:53:59.015Z,114.55
2023-02-17T19:56:26.397Z,109.55
2023-02-17T19:58:53.156Z,108.70
2023-02-17T20:01:20.989Z,88.55
2023-02-17T20:03:47.649Z,71.28
2023-02-17T20:06:18.963Z,64.72
2023-02-17T20:08:46.076Z,77.15
2023-02-17T20:11:12.773Z,87.68
2023-02-17T20:13:45.828Z,86.53
2023-02-17T20:16:13.905Z,85.70
2023-02-17T20:18:41.487Z,98.32
2023-02-17T20:21:08.791Z,89.43
2023-02-17T20:23:35.512Z,83.88
2023-02-17T20:26:06.887Z,91.03
2023-02-17T20:28:33.762Z,106.75
2023-02-17T20:31:00.692Z,96.45
2023-02-17T20:33:27.399Z,109.18
2023-02-17T20:35:53.838Z,87.05
2023-02-17T20:38:20.323Z,78.18
2023-02-17T20:40:46.759Z,77.80
2023-02-17T20:43:13.385Z,77.18
2023-02-17T20:45:40.322Z,75.43
2023-02-17T20:48:06.813Z,210.60
2023-02-17T20:50:33.374Z,112.55
2023-02-17T20:52:59.914Z,100.25
2023-02-17T20:55:27.758Z,93.57
2023-02-17T20:57:54.500Z,88.28
2023-02-17T21:00:22.469Z,85.63
2023-02-17T21:02:49.426Z,71.35
2023-02-17T21:05:15.969Z,66.93
2023-02-17T21:07:42.418Z,66.30
2023-02-17T21:10:09.645Z,70.85
2023-02-17T21:12:36.192Z,69.35
2023-02-17T21:15:02.633Z,85.53
2023-02-17T21:17:29.111Z,78.60
2023-02-17T21:19:55.657Z,75.63
2023-02-17T21:22:22.140Z,75.20
2023-02-17T21:24:48.664Z,75.70
2023-02-17T21:27:15.159Z,66.50
2023-02-17T21:29:41.691Z,73.03
2023-02-17T21:32:08.350Z,73.47
2023-02-17T21:34:38.596Z,70.03
2023-02-17T21:37:05.619Z,68.25
2023-02-17T21:39:32.147Z,71.60
2023-02-17T21:41:58.630Z,65.60
2023-02-17T21:44:43.888Z,69.38
2023-02-17T21:47:10.577Z,64.97
2023-02-17T21:49:37.089Z,75.30
2023-02-17T21:52:03.753Z,75.75
2023-02-17T21:54:30.369Z,70.47
2023-02-17T21:56:56.897Z,66.57
2023-02-17T21:59:23.332Z,65.38
2023-02-17T22:01:51.954Z,62.55
2023-02-17T22:04:18.668Z,78.45
2023-02-17T22:06:45.441Z,63.60
2023-02-17T22:09:12.806Z,61.33
2023-02-17T22:11:40.197Z,64.18
2023-02-17T22:14:12.138Z,65.63
2023-02-17T22:16:38.780Z,58.72
2023-02-17T22:19:06.582Z,61.08
2023-02-17T22:21:33.313Z,63.40
2023-02-17T22:24:01.016Z,68.45
2023-02-17T22:26:27.636Z,49.22
2023-02-17T22:28:54.257Z,49.33
2023-02-17T22:31:21.992Z,42.25
2023-02-17T22:33:49.023Z,47.42
2023-02-17T22:36:17.177Z,44.47
2023-02-17T22:38:43.847Z,46.42
2023-02-17T22:41:14.449Z,43.25
2023-02-17T22:43:41.823Z,44.88
2023-02-17T22:46:09.382Z,50.28
2023-02-17T22:48:37.615Z,49.33
2023-02-17T22:51:05.252Z,42.13
2023-02-17T22:53:31.669Z,41.90
2023-02-17T22:55:58.229Z,43.55
2023-02-17T22:58:26.139Z,44.95
2023-02-17T23:01:01.607Z,39.58
2023-02-17T23:03:28.287Z,40.40
2023-02-17T23:05:59.114Z,43.80
2023-02-17T23:08:26.217Z,42.80
2023-02-17T23:10:52.725Z,40.83
2023-02-17T23:13:19.308Z,43.40
2023-02-17T23:15:45.876Z,39.85
2023-02-17T23:18:13.767Z,37.70
2023-02-17T23:20:41.110Z,39.70
2023-02-17T23:23:07.557Z,32.63
2023-02-17T23:25:34.342Z,40.20
2023-02-17T23:28:01.191Z,31.67
2023-02-17T23:30:27.860Z,36.70
2023-02-17T23:32:54.595Z,41.53
2023-02-17T23:35:21.229Z,36.03
2023-02-17T23:37:49.663Z,41.15
2023-02-17T23:40:16.350Z,41.80
2023-02-17T23:42:43.109Z,46.40
2023-02-17T23:45:09.729Z,46.22
2023-02-17T23:47:36.224Z,48.10
2023-02-17T23:50:04.624Z,128.60
2023-02-17T23:52:31.168Z,106.78
2023-02-17T23:54:57.766Z,94.70
2023-02-17T23:57:24.230Z,67.97
2023-02-17T23:59:50.727Z,59.00
